Decoded Metar for VOCB (COIMBATORE in INDIA) (IATA:CJB) | Meteo·Mobile Aviation Weather
aviador You're here:

VOCB Decoded Metar

COIMBATORE in INDIA
Report Time2018-12-15 00:00:00
UTC Time2018-12-15 00:31:04
Flight Rules ifr IFR
WindCalm
Visibility4000 m
Phenomena:Mist
Clouds:Few 015 Hf
Expected CloudBase > 2,400 ft AGL from Temp-Dew spread
CeilingNone
Temp23°C (ISA +11)
Dew Point17°C (69% RH)
QNH1014 hPa
Density Alt2,769 ft
Elevation1,309 ft
Report Wrong Elevation
Raw Report
METAR VOCB 150000Z 00000KT 4000 BR FEW015 23/17 Q1014 BECMG 3000 BR=####018000108####
SACN46 CWAO 150000 CCA

Extra information for VOCB:More info

Metar Taf Metar & Taf Last 4 Metars F.Rules Stats Wind Profile Meteogram Temp Stats Airport Information Weather charts Add Link Nearby VenuesMetar ALERT Operation Metar Decoded Social comments